Time;durP1;ratioP1;P1;durP2;ratioP2;P2;SDS_P1;SDS_P2;PMS_P1;PMS_P2;Temp;Humidity;BMP_temperature;BMP_pressure;BME280_temperature;BME280_humidity;BME280_pressure;Samples;Min_cycle;Max_cycle;Signal;HPM_P1;HPM_P2
2020/12/21 00:00:08;;;;;;;64.38;29.63;;;;;;;6.73;87.90;100472.28;5103541;28;20027;-70
2020/12/21 00:02:33;;;;;;;57.35;23.10;;;;;;;6.71;87.76;100468.84;5103558;28;20028;-71
2020/12/21 00:04:59;;;;;;;70.15;30.92;;;;;;;6.66;87.70;100461.94;5102019;28;20044;-71
2020/12/21 00:07:24;;;;;;;48.28;22.20;;;;;;;6.69;87.85;100464.53;5103572;28;20020;-70
2020/12/21 00:09:49;;;;;;;62.08;26.40;;;;;;;6.58;87.61;100437.81;5103768;28;20387;-70
2020/12/21 00:12:15;;;;;;;64.55;29.98;;;;;;;6.73;87.56;100460.28;5103137;28;20103;-72
2020/12/21 00:14:40;;;;;;;73.20;30.20;;;;;;;6.81;88.10;100466.38;5103659;28;20032;-71
2020/12/21 00:17:05;;;;;;;65.28;29.73;;;;;;;6.75;87.53;100457.69;5102119;28;20055;-71
2020/12/21 00:19:31;;;;;;;68.90;28.55;;;;;;;6.83;87.49;100461.22;5103377;28;20055;-71
2020/12/21 00:21:56;;;;;;;68.78;30.20;;;;;;;6.78;87.71;100450.84;5103501;28;20333;-71
2020/12/21 00:24:22;;;;;;;54.25;27.13;;;;;;;6.85;87.61;100449.19;5103481;28;20049;-71
2020/12/21 00:26:49;;;;;;;68.55;27.50;;;;;;;6.87;87.50;100450.06;5103192;28;20510;-71
2020/12/21 00:29:15;;;;;;;68.07;29.02;;;;;;;6.81;87.50;100440.56;5101995;28;20035;-71
2020/12/21 00:31:42;;;;;;;61.35;29.30;;;;;;;6.93;87.70;100457.00;5103702;28;20639;-71
2020/12/21 00:34:07;;;;;;;54.78;24.60;;;;;;;6.84;87.50;100439.72;5107506;28;20024;-69
2020/12/21 00:36:39;;;;;;;52.65;25.08;;;;;;;6.88;87.42;100456.09;5107416;28;20024;-71
2020/12/21 00:39:05;;;;;;;;;;;;;;;6.91;87.09;100471.59;5108200;28;20426;-69
2020/12/21 00:41:30;;;;;;;56.05;23.98;;;;;;;6.86;87.12;100468.97;5107087;28;19912;-70
2020/12/21 00:43:56;;;;;;;52.13;24.02;;;;;;;6.87;87.12;100465.53;5107534;28;20020;-69
2020/12/21 00:46:24;;;;;;;54.08;25.50;;;;;;;6.81;87.31;100450.88;5107385;28;20024;-70
2020/12/21 00:48:50;;;;;;;48.55;23.10;;;;;;;6.86;87.08;100462.94;5106177;28;20519;-70
2020/12/21 00:51:16;;;;;;;52.40;23.17;;;;;;;6.88;87.28;100462.13;5107221;28;20054;-70
2020/12/21 00:53:45;;;;;;;49.42;21.83;;;;;;;6.85;87.20;100448.31;5107509;28;20066;-71
2020/12/21 00:56:11;;;;;;;43.58;22.20;;;;;;;6.90;86.98;100449.22;5107142;28;20020;-71
2020/12/21 00:58:40;;;;;;;44.58;21.65;;;;;;;6.89;87.03;100450.94;5107377;28;20050;-71
2020/12/21 01:01:11;;;;;;;37.92;18.95;;;;;;;6.91;87.17;100456.09;5107297;28;20053;-70
2020/12/21 01:03:37;;;;;;;37.97;19.83;;;;;;;6.88;86.91;100451.81;5107206;28;20425;-71
2020/12/21 01:06:05;;;;;;;45.72;18.42;;;;;;;6.76;86.66;100437.06;5105784;28;20303;-71
2020/12/21 01:08:33;;;;;;;38.30;17.33;;;;;;;6.88;86.90;100456.97;5107107;28;20040;-71
2020/12/21 01:10:58;;;;;;;42.05;18.13;;;;;;;6.91;86.65;100454.41;5106584;28;20028;-71
2020/12/21 01:13:24;;;;;;;33.97;17.58;;;;;;;6.89;86.86;100453.50;5107049;28;20080;-71
2020/12/21 01:15:49;;;;;;;32.08;15.35;;;;;;;6.91;86.73;100454.41;5106913;28;20031;-72
2020/12/21 01:18:15;;;;;;;29.92;14.60;;;;;;;6.94;86.49;100461.28;5106988;28;20495;-71
2020/12/21 01:20:41;;;;;;;26.98;12.57;;;;;;;6.96;86.26;100448.41;5106949;28;20634;-70
2020/12/21 01:23:07;;;;;;;29.75;13.15;;;;;;;6.97;86.02;100460.44;5106936;28;20020;-71
2020/12/21 01:25:32;;;;;;;31.33;14.80;;;;;;;6.94;85.98;100456.13;5106588;28;20031;-72
2020/12/21 01:27:58;;;;;;;35.95;15.02;;;;;;;7.01;85.81;100470.78;5106862;28;20059;-71
2020/12/21 01:30:23;;;;;;;33.08;15.48;;;;;;;7.04;85.87;100464.81;5106386;28;20024;-71
2020/12/21 01:32:49;;;;;;;34.28;16.83;;;;;;;7.05;86.12;100467.41;5105336;28;20028;-72
2020/12/21 01:35:14;;;;;;;34.83;17.23;;;;;;;7.03;85.60;100458.78;5106614;28;20110;-71
2020/12/21 01:37:39;;;;;;;42.35;18.00;;;;;;;7.04;85.78;100457.06;5106703;28;20027;-71
2020/12/21 01:40:05;;;;;;;36.05;18.73;;;;;;;7.02;85.85;100456.19;5105862;28;20034;-71
2020/12/21 01:42:31;;;;;;;37.97;16.95;;;;;;;6.97;86.07;100443.25;5105884;28;20016;-71
2020/12/21 01:44:56;;;;;;;36.55;17.60;;;;;;;7.11;85.72;100458.81;5106461;28;20372;-71
2020/12/21 01:47:22;;;;;;;40.72;19.13;;;;;;;7.07;85.62;100470.00;5105018;28;20031;-72
2020/12/21 01:49:48;;;;;;;40.45;19.23;;;;;;;7.12;85.98;100462.28;5106201;28;20025;-71
2020/12/21 01:52:16;;;;;;;38.50;18.17;;;;;;;7.09;85.69;100460.56;5106243;28;20038;-72
2020/12/21 01:54:42;;;;;;;39.03;18.30;;;;;;;7.08;86.00;100453.63;5106268;28;20020;-71
2020/12/21 01:57:08;;;;;;;57.20;19.65;;;;;;;7.12;85.92;100457.13;5105875;28;20418;-70
2020/12/21 01:59:34;;;;;;;44.70;17.02;;;;;;;7.13;85.93;100443.34;5105928;28;20076;-71
2020/12/21 02:02:00;;;;;;;49.28;20.35;;;;;;;7.04;86.04;100439.88;5106112;28;20024;-71
2020/12/21 02:04:25;;;;;;;37.65;15.13;;;;;;;6.94;85.99;100426.03;5106038;28;20104;-70
2020/12/21 02:06:51;;;;;;;44.40;20.90;;;;;;;6.98;85.97;100438.97;5105940;28;20674;-71
2020/12/21 02:09:16;;;;;;;45.47;19.90;;;;;;;6.98;85.98;100444.97;5106048;28;20028;-71
2020/12/21 02:11:43;;;;;;;46.47;22.33;;;;;;;7.06;86.17;100450.22;5105421;28;20027;-71
2020/12/21 02:14:09;;;;;;;45.80;21.42;;;;;;;7.07;86.33;100446.75;5104462;28;20047;-71
2020/12/21 02:16:34;;;;;;;38.95;19.63;;;;;;;7.01;86.10;100441.56;5105830;28;20024;-72
2020/12/21 02:19:00;;;;;;;44.83;22.58;;;;;;;7.05;86.03;100448.47;5105726;28;20034;-72
2020/12/21 02:21:25;;;;;;;45.53;22.80;;;;;;;7.09;86.09;100446.78;5105675;28;20032;-71
2020/12/21 02:23:51;;;;;;;48.15;20.33;;;;;;;7.12;85.89;100439.91;5105631;28;20058;-72
2020/12/21 02:26:16;;;;;;;51.00;24.15;;;;;;;7.12;86.19;100444.22;5103851;28;20016;-71
2020/12/21 02:28:41;;;;;;;43.38;21.13;;;;;;;7.05;86.19;100436.44;5105632;28;20023;-71
2020/12/21 02:31:07;;;;;;;49.83;23.08;;;;;;;7.03;86.13;100426.94;5105538;28;20027;-70
2020/12/21 02:33:33;;;;;;;53.35;23.83;;;;;;;7.02;86.06;100439.00;5104370;28;20557;-70
2020/12/21 02:35:58;;;;;;;49.05;24.20;;;;;;;6.95;86.27;100432.03;5105304;28;20091;-70
2020/12/21 02:38:24;;;;;;;51.83;26.42;;;;;;;7.00;86.56;100434.66;5105039;28;20028;-70
2020/12/21 02:40:49;;;;;;;47.45;24.60;;;;;;;7.03;86.26;100429.50;5105040;28;20027;-71
2020/12/21 02:43:14;;;;;;;61.53;24.88;;;;;;;7.03;86.47;100432.09;5105619;28;20023;-70
2020/12/21 02:45:41;;;;;;;45.90;19.55;;;;;;;7.05;86.39;100439.00;5105258;28;20412;-71
2020/12/21 02:48:06;;;;;;;48.88;24.77;;;;;;;7.04;86.28;100433.84;5103930;28;20020;-71
2020/12/21 02:50:32;;;;;;;37.35;18.70;;;;;;;6.98;86.59;100424.31;5104829;28;20536;-71
2020/12/21 02:52:57;;;;;;;51.22;19.38;;;;;;;6.97;86.34;100432.03;5104825;28;20020;-70
2020/12/21 02:55:23;;;;;;;57.00;23.55;;;;;;;6.93;86.53;100426.88;5103934;28;20371;-71
2020/12/21 02:57:48;;;;;;;61.95;27.90;;;;;;;6.93;86.48;100424.28;5104624;28;20024;-71
2020/12/21 03:00:14;;;;;;;58.92;27.70;;;;;;;6.99;86.60;100435.50;5104584;28;20039;-71
2020/12/21 03:02:39;;;;;;;52.53;20.10;;;;;;;7.03;86.34;100425.22;5104788;28;20023;-71
2020/12/21 03:05:05;;;;;;;59.55;24.67;;;;;;;7.04;86.44;100421.81;5104404;28;20104;-71
2020/12/21 03:07:31;;;;;;;42.92;21.70;;;;;;;7.00;86.56;100424.31;5104584;28;20044;-71
2020/12/21 03:09:57;;;;;;;61.13;26.90;;;;;;;7.03;86.42;100424.34;5104622;28;20027;-71
2020/12/21 03:12:22;;;;;;;61.05;29.50;;;;;;;7.03;86.29;100430.38;5104158;28;20028;-71
2020/12/21 03:14:48;;;;;;;64.05;27.95;;;;;;;6.80;86.42;100386.34;5104336;28;20027;-71
2020/12/21 03:17:13;;;;;;;42.55;21.05;;;;;;;7.00;86.52;100414.88;5104226;28;20039;-71
2020/12/21 03:19:39;;;;;;;58.20;28.10;;;;;;;7.02;86.42;100422.63;5102811;28;20054;-70
2020/12/21 03:22:04;;;;;;;69.10;29.20;;;;;;;6.89;86.37;100401.91;5104551;28;20076;-70
2020/12/21 03:24:29;;;;;;;56.90;26.33;;;;;;;6.91;86.33;100409.66;5104512;28;20020;-70
2020/12/21 03:26:55;;;;;;;52.25;23.08;;;;;;;6.86;86.41;100407.03;5104217;28;20023;-71
2020/12/21 03:29:20;;;;;;;64.00;27.27;;;;;;;6.91;86.50;100415.69;5104170;28;20020;-71
2020/12/21 03:31:45;;;;;;;71.95;30.27;;;;;;;6.96;86.50;100404.53;5104135;28;20101;-71
2020/12/21 03:34:13;;;;;;;51.95;25.17;;;;;;;7.01;86.35;100405.41;5104220;28;20507;-71
2020/12/21 03:36:40;;;;;;;58.92;27.15;;;;;;;6.91;86.26;100413.09;5104294;28;20100;-70
2020/12/21 03:39:06;;;;;;;59.65;27.63;;;;;;;6.87;86.59;100398.44;5104096;28;20024;-71
2020/12/21 03:41:31;;;;;;;58.15;27.38;;;;;;;6.84;86.47;100389.84;5103699;28;20388;-69
2020/12/21 03:43:57;;;;;;;61.85;28.67;;;;;;;6.91;86.47;100400.19;5104315;28;20153;-70
2020/12/21 03:46:22;;;;;;;61.85;27.77;;;;;;;6.88;86.30;100395.03;5103956;28;20034;-71
2020/12/21 03:48:47;;;;;;;58.50;28.00;;;;;;;6.87;86.44;100389.84;5103978;28;20050;-70
2020/12/21 03:51:13;;;;;;;56.90;25.10;;;;;;;6.71;86.62;100356.19;5102314;28;20055;-70
2020/12/21 03:53:38;;;;;;;40.47;17.02;;;;;;;6.94;86.36;100389.03;5103825;28;20461;-69
2020/12/21 03:56:03;;;;;;;34.15;16.02;;;;;;;6.84;86.07;100374.34;5103401;28;20032;-70
2020/12/21 03:58:29;;;;;;;50.83;23.83;;;;;;;6.89;86.08;100389.00;5103829;28;20541;-70
2020/12/21 04:00:54;;;;;;;55.15;24.58;;;;;;;6.86;86.47;100391.56;5103472;28;20020;-70
2020/12/21 04:03:19;;;;;;;54.08;25.20;;;;;;;6.80;86.26;100374.31;5103612;28;20020;-70
2020/12/21 04:05:45;;;;;;;66.28;28.63;;;;;;;6.75;86.43;100376.00;5103470;28;20048;-71
2020/12/21 04:08:10;;;;;;;64.68;29.67;;;;;;;6.80;86.33;100384.66;5103620;28;20075;-71
2020/12/21 04:10:37;;;;;;;64.38;30.92;;;;;;;6.85;86.49;100388.97;5103084;28;20327;-70
2020/12/21 04:13:03;;;;;;;54.75;24.85;;;;;;;6.84;86.59;100388.09;5103882;28;20035;-70
2020/12/21 04:15:28;;;;;;;63.28;26.00;;;;;;;6.82;86.68;100384.66;5103660;28;20510;-70
2020/12/21 04:17:53;;;;;;;60.40;26.63;;;;;;;6.82;86.73;100384.66;5102139;28;20020;-69
2020/12/21 04:20:19;;;;;;;59.85;26.45;;;;;;;6.81;86.45;100377.75;5103426;28;20027;-70
2020/12/21 04:22:44;;;;;;;61.35;26.42;;;;;;;6.87;86.53;100388.13;5103502;28;20084;-70
2020/12/21 04:25:09;;;;;;;59.65;27.25;;;;;;;6.53;86.37;100336.28;5103611;28;20024;-70
2020/12/21 04:27:35;;;;;;;55.58;25.90;;;;;;;6.81;86.66;100383.78;5103060;28;20074;-70
2020/12/21 04:30:01;;;;;;;63.53;25.55;;;;;;;6.77;86.47;100382.03;5103298;28;20028;-70
2020/12/21 04:32:27;;;;;;;67.65;29.10;;;;;;;6.75;86.50;100383.75;5103395;28;20186;-70
2020/12/21 04:34:52;;;;;;;60.13;25.25;;;;;;;6.66;86.56;100378.53;5103381;28;20088;-71
2020/12/21 04:37:17;;;;;;;70.30;28.35;;;;;;;6.65;86.54;100372.50;5103286;28;20023;-71
2020/12/21 04:39:43;;;;;;;52.45;20.00;;;;;;;6.70;86.59;100380.25;5103092;28;20039;-69
2020/12/21 04:42:08;;;;;;;61.47;25.95;;;;;;;6.48;86.54;100356.91;5102959;28;20042;-69
2020/12/21 04:44:34;;;;;;;71.45;30.58;;;;;;;6.62;86.67;100380.22;5103218;28;20081;-71
2020/12/21 04:47:00;;;;;;;62.15;29.58;;;;;;;6.61;86.80;100385.34;5103082;28;20028;-71
2020/12/21 04:49:25;;;;;;;62.47;24.73;;;;;;;6.50;86.82;100356.91;5103155;28;20040;-70
2020/12/21 04:51:51;;;;;;;64.82;28.27;;;;;;;6.63;86.85;100386.25;5101889;28;20024;-69
2020/12/21 04:54:20;;;;;;;76.68;31.70;;;;;;;6.65;86.83;100392.25;5103452;28;20031;-69
2020/12/21 04:56:46;;;;;;;72.45;30.20;;;;;;;6.61;86.97;100386.22;5103156;28;20020;-70
2020/12/21 04:59:12;;;;;;;54.63;22.90;;;;;;;6.56;86.71;100382.75;5103711;28;20057;-69
2020/12/21 05:01:38;;;;;;;45.15;20.17;;;;;;;6.61;86.75;100385.34;5103263;28;20020;-70
2020/12/21 05:04:04;;;;;;;30.58;14.63;;;;;;;6.58;86.91;100383.63;5103236;28;20055;-70
2020/12/21 05:06:30;;;;;;;48.30;19.00;;;;;;;6.51;87.13;100392.16;5103221;28;20032;-71
2020/12/21 05:09:06;;;;;;;48.63;19.90;;;;;;;6.50;87.25;100382.69;5103259;28;20039;-70
2020/12/21 05:11:33;;;;;;;71.88;30.27;;;;;;;6.56;87.25;100393.06;5102797;28;20052;-71
2020/12/21 05:14:09;;;;;;;60.83;21.17;;;;;;;6.57;87.35;100385.34;5103296;28;20024;-70
2020/12/21 05:16:35;;;;;;;48.63;21.48;;;;;;;6.52;87.08;100375.81;5102034;28;20016;-70
2020/12/21 05:19:00;;;;;;;62.38;26.17;;;;;;;6.59;87.00;100381.91;5105712;28;20477;-70
2020/12/21 05:21:30;;;;;;;55.08;25.67;;;;;;;6.45;86.80;100356.88;5106736;28;20046;-70
2020/12/21 05:24:02;;;;;;;66.75;28.92;;;;;;;6.62;87.14;100376.75;5106814;28;20486;-71
2020/12/21 05:26:32;;;;;;;63.00;26.00;;;;;;;6.66;87.17;100378.53;5106540;28;20027;-71
2020/12/21 05:28:59;;;;;;;58.78;25.95;;;;;;;6.60;87.05;100371.59;5106817;28;20031;-71
2020/12/21 05:31:24;;;;;;;55.30;25.85;;;;;;;6.66;86.90;100381.09;5106496;28;20043;-71
2020/12/21 05:33:50;;;;;;;64.63;24.63;;;;;;;6.70;86.58;100382.84;5106581;28;20028;-70
2020/12/21 05:36:18;;;;;;;54.25;24.30;;;;;;;6.53;86.43;100352.63;5105198;28;20026;-71
2020/12/21 05:38:55;;;;;;;62.88;23.52;;;;;;;6.57;86.63;100364.69;5105026;28;20077;-70
2020/12/21 05:41:21;;;;;;;58.15;23.13;;;;;;;6.65;86.68;100372.50;5105077;28;20016;-71
2020/12/21 05:43:48;;;;;;;57.45;27.05;;;;;;;6.65;86.64;100363.88;5104454;28;20028;-70
2020/12/21 05:46:24;;;;;;;63.72;26.27;;;;;;;6.61;86.63;100370.75;5106457;28;20020;-70
2020/12/21 05:48:50;;;;;;;52.42;23.42;;;;;;;6.66;86.38;100375.94;5106432;28;20024;-70
2020/12/21 05:51:38;;;;;;;53.17;22.85;;;;;;;6.64;86.53;100367.31;5105951;28;20031;-70
2020/12/21 05:54:06;;;;;;;46.97;19.25;;;;;;;6.52;86.53;100355.19;5106169;28;20053;-71
2020/12/21 05:56:33;;;;;;;57.40;23.67;;;;;;;6.57;86.34;100371.56;5105855;28;20035;-71
2020/12/21 05:59:00;;;;;;;37.13;18.38;;;;;;;6.45;86.41;100354.28;5104890;28;20044;-70
2020/12/21 06:01:26;;;;;;;53.40;18.67;;;;;;;6.43;86.58;100345.66;5105657;28;20030;-69
2020/12/21 06:03:53;;;;;;;56.33;23.83;;;;;;;6.52;86.46;100358.63;5105921;28;20048;-70
2020/12/21 06:06:24;;;;;;;61.22;25.77;;;;;;;6.53;86.59;100360.34;5106046;28;20020;-70
2020/12/21 06:08:57;;;;;;;66.18;26.17;;;;;;;6.62;86.54;100364.72;5104627;28;20426;-71
2020/12/21 06:11:27;;;;;;;43.03;19.15;;;;;;;6.62;86.37;100367.31;5105360;28;20024;-69
2020/12/21 06:14:04;;;;;;;33.83;16.85;;;;;;;6.57;86.41;100363.81;5105888;28;20043;-71
2020/12/21 06:16:31;;;;;;;42.15;19.35;;;;;;;6.58;85.96;100375.91;5105976;28;20039;-70
2020/12/21 06:18:56;;;;;;;61.67;21.58;;;;;;;6.61;86.33;100367.31;5105937;28;20034;-71
2020/12/21 06:21:26;;;;;;;52.33;20.33;;;;;;;6.60;86.15;100361.25;5105375;28;20084;-70
2020/12/21 06:23:52;;;;;;;49.47;22.25;;;;;;;6.57;85.85;100367.28;5105719;28;20023;-73
2020/12/21 06:26:17;;;;;;;39.20;14.43;;;;;;;6.56;86.00;100368.16;5105351;28;20024;-71
2020/12/21 06:28:43;;;;;;;36.33;16.52;;;;;;;6.58;85.61;100360.41;5104001;28;20024;-70
2020/12/21 06:31:16;;;;;;;38.30;16.95;;;;;;;6.57;86.15;100354.38;5104510;28;20025;-70
2020/12/21 06:33:42;;;;;;;44.63;20.17;;;;;;;6.56;85.93;100362.09;5104076;28;20028;-70
2020/12/21 06:36:08;;;;;;;41.30;18.40;;;;;;;6.56;85.99;100357.81;5105104;28;20044;-70
2020/12/21 06:38:42;;;;;;;42.42;19.83;;;;;;;6.60;85.61;100361.25;5105415;28;20050;-71
2020/12/21 06:41:22;;;;;;;46.72;19.20;;;;;;;6.56;85.74;100341.47;5103283;28;20024;-71
2020/12/21 06:43:59;;;;;;;45.53;19.20;;;;;;;6.49;85.61;100337.97;5105493;28;20050;-71
2020/12/21 06:46:26;;;;;;;42.20;17.75;;;;;;;6.68;85.72;100359.63;5105094;28;20101;-70
2020/12/21 06:49:13;;;;;;;33.63;14.38;;;;;;;6.63;85.57;100360.44;5105414;28;20166;-71
2020/12/21 06:51:41;;;;;;;30.85;15.20;;;;;;;6.46;85.18;100332.81;5105062;28;20047;-73
2020/12/21 06:54:09;;;;;;;36.97;16.25;;;;;;;6.64;85.36;100362.16;5103743;28;20070;-72
2020/12/21 06:56:35;;;;;;;39.88;15.90;;;;;;;6.60;85.41;100353.53;5104785;28;20023;-72
2020/12/21 06:59:00;;;;;;;38.90;17.08;;;;;;;6.60;85.44;100352.69;5105147;28;20019;-72
2020/12/21 07:01:28;;;;;;;32.33;13.27;;;;;;;6.63;85.26;100358.72;5104592;28;20019;-71
2020/12/21 07:03:53;;;;;;;47.25;17.77;;;;;;;6.54;84.93;100353.50;5104416;28;20056;-71
2020/12/21 07:06:20;;;;;;;35.40;15.90;;;;;;;6.41;85.54;100339.63;5102412;28;20045;-71
2020/12/21 07:08:46;;;;;;;33.58;15.32;;;;;;;6.54;85.43;100356.06;5104102;28;20070;-71
2020/12/21 07:11:20;;;;;;;40.72;17.65;;;;;;;6.66;84.83;100345.00;5103429;28;20042;-71
2020/12/21 07:13:50;;;;;;;39.75;18.35;;;;;;;6.61;85.42;100352.69;5103922;28;20053;-70
2020/12/21 07:16:17;;;;;;;42.22;18.50;;;;;;;6.61;85.25;100357.84;5103703;28;20024;-70
2020/12/21 07:18:43;;;;;;;38.65;16.85;;;;;;;6.58;85.56;100342.34;5103593;28;20024;-72
2020/12/21 07:21:10;;;;;;;36.35;16.80;;;;;;;6.69;85.64;100357.91;5103281;28;20062;-73
2020/12/21 07:23:36;;;;;;;45.28;19.02;;;;;;;6.61;85.54;100349.25;5104465;28;20048;-71
2020/12/21 07:26:02;;;;;;;47.75;19.38;;;;;;;6.66;85.35;100366.47;5102688;28;20035;-71
2020/12/21 07:28:28;;;;;;;41.10;18.90;;;;;;;6.53;85.30;100333.72;5103315;28;20028;-71
2020/12/21 07:31:06;;;;;;;42.70;19.77;;;;;;;6.59;85.42;100356.09;5103929;28;20043;-71
2020/12/21 07:33:32;;;;;;;44.40;17.42;;;;;;;6.60;85.47;100361.25;5104286;28;20047;-71
2020/12/21 07:35:58;;;;;;;45.03;15.30;;;;;;;6.65;85.53;100361.28;5104322;28;20016;-71
2020/12/21 07:38:24;;;;;;;30.02;13.80;;;;;;;6.59;85.67;100350.94;5104431;28;20031;-70
2020/12/21 07:40:51;;;;;;;45.95;17.02;;;;;;;6.64;85.55;100368.19;5102391;28;20197;-71
2020/12/21 07:43:34;;;;;;;38.55;16.20;;;;;;;6.61;85.37;100359.56;5104071;28;20020;-72
2020/12/21 07:46:06;;;;;;;41.22;13.20;;;;;;;6.54;85.46;100345.75;5104181;28;20566;-70
2020/12/21 07:48:32;;;;;;;;;;;;;;;6.66;85.31;100353.56;5104602;28;20138;-71
2020/12/21 07:51:02;;;;;;;25.13;9.70;;;;;;;6.61;85.38;100346.66;5104017;28;19938;-71
2020/12/21 07:53:30;;;;;;;35.75;16.40;;;;;;;6.60;85.37;100343.22;5104024;28;20027;-70
2020/12/21 07:55:57;;;;;;;39.85;15.88;;;;;;;6.59;85.45;100351.81;5103670;28;20031;-71
2020/12/21 07:58:22;;;;;;;39.35;16.40;;;;;;;6.54;85.39;100350.91;5103864;28;20035;-70
2020/12/21 08:00:56;;;;;;;45.53;19.13;;;;;;;6.66;85.04;100353.56;5103870;28;20113;-70
2020/12/21 08:03:24;;;;;;;43.53;17.55;;;;;;;6.53;85.21;100336.28;5103953;28;20043;-71
2020/12/21 08:05:50;;;;;;;41.92;15.35;;;;;;;6.61;85.13;100354.41;5103744;28;20044;-71
2020/12/21 08:08:16;;;;;;;38.97;15.70;;;;;;;6.61;85.29;100349.25;5102794;28;20093;-71
2020/12/21 08:10:41;;;;;;;43.83;16.95;;;;;;;6.60;85.42;100352.69;5103632;28;20634;-71
2020/12/21 08:13:25;;;;;;;38.25;16.75;;;;;;;6.57;85.46;100341.47;5103276;28;20027;-71
2020/12/21 08:15:50;;;;;;;35.55;13.38;;;;;;;6.61;85.49;100354.41;5102910;28;20516;-70
2020/12/21 08:18:16;;;;;;;44.53;17.65;;;;;;;6.48;85.38;100351.75;5103296;28;20048;-72
2020/12/21 08:20:49;;;;;;;42.67;17.48;;;;;;;6.45;85.52;100349.97;5103621;28;20541;-69
2020/12/21 08:23:26;;;;;;;53.53;19.92;;;;;;;6.45;85.71;100352.56;5102484;28;20114;-71
2020/12/21 08:25:52;;;;;;;54.95;20.38;;;;;;;6.53;85.77;100362.09;5103322;28;20079;-72
2020/12/21 08:28:50;;;;;;;42.33;18.80;;;;;;;6.57;85.72;100353.50;5102439;28;20118;-71
2020/12/21 08:31:21;;;;;;;45.33;18.45;;;;;;;6.59;85.61;100354.41;5100143;28;20124;-71
2020/12/21 08:33:57;;;;;;;46.58;22.77;;;;;;;6.61;85.69;100362.13;5102749;28;20362;-70
2020/12/21 08:36:25;;;;;;;41.70;16.33;;;;;;;6.53;85.87;100365.50;5102697;28;20032;-70
2020/12/21 08:38:52;;;;;;;57.97;22.85;;;;;;;6.48;85.95;100361.19;5103689;28;20026;-69
2020/12/21 08:41:18;;;;;;;52.58;23.73;;;;;;;6.45;86.03;100359.44;5103226;28;20077;-71
2020/12/21 08:43:44;;;;;;;40.75;17.42;;;;;;;6.44;86.32;100363.75;5103622;28;20024;-71
2020/12/21 08:46:10;;;;;;;43.25;18.85;;;;;;;6.47;86.41;100367.19;5102260;28;20020;-71
2020/12/21 08:48:37;;;;;;;56.67;21.50;;;;;;;6.44;86.72;100368.03;5103615;28;20479;-71
2020/12/21 08:51:03;;;;;;;57.90;23.73;;;;;;;6.50;86.45;100354.31;5103453;28;20024;-71
2020/12/21 08:53:28;;;;;;;32.25;11.50;;;;;;;6.52;86.47;100362.91;5103950;28;20132;-70
2020/12/21 08:55:54;;;;;;;52.60;18.77;;;;;;;6.48;86.51;100361.19;5107100;28;20039;-70
2020/12/21 08:58:19;;;;;;;49.55;19.58;;;;;;;6.51;86.78;100359.50;5107231;28;20099;-70
2020/12/21 09:00:44;;;;;;;54.53;19.73;;;;;;;6.50;86.66;100362.06;5105822;28;20122;-70
2020/12/21 09:03:10;;;;;;;47.60;20.20;;;;;;;6.49;86.81;100368.06;5107504;28;20074;-70
2020/12/21 09:05:38;;;;;;;50.97;20.73;;;;;;;6.37;86.81;100351.66;5105718;28;20052;-70
2020/12/21 09:08:04;;;;;;;53.42;21.52;;;;;;;6.45;86.91;100368.03;5107361;28;20036;-70
2020/12/21 09:10:29;;;;;;;49.03;20.23;;;;;;;6.56;86.42;100364.69;5107085;28;20054;-70
2020/12/21 09:12:55;;;;;;;46.95;18.15;;;;;;;6.51;86.80;100379.25;5106642;28;20020;-71
2020/12/21 09:15:20;;;;;;;34.20;14.20;;;;;;;6.43;86.60;100362.03;5105748;28;20031;-71
2020/12/21 09:17:45;;;;;;;45.25;17.25;;;;;;;6.51;86.69;100369.81;5107011;28;20079;-69
2020/12/21 09:20:11;;;;;;;43.80;15.98;;;;;;;6.50;86.75;100380.13;5106843;28;20042;-70
2020/12/21 09:22:36;;;;;;;35.67;15.00;;;;;;;6.49;86.64;100376.66;5105486;28;20020;-70
2020/12/21 09:25:03;;;;;;;48.17;18.88;;;;;;;6.48;86.69;100381.81;5107017;28;20078;-69
2020/12/21 09:27:28;;;;;;;37.67;13.00;;;;;;;6.51;86.62;100379.25;5105182;28;20073;-71
2020/12/21 09:29:53;;;;;;;38.22;14.10;;;;;;;6.49;86.50;100391.28;5106667;28;20032;-72
2020/12/21 09:32:19;;;;;;;17.80;8.82;;;;;;;6.38;86.98;100374.00;5106528;28;20047;-72
2020/12/21 09:34:44;;;;;;;36.28;10.27;;;;;;;6.34;86.82;100386.88;5106679;28;20031;-74
2020/12/21 09:37:12;;;;;;;22.73;8.80;;;;;;;6.28;86.72;100382.50;5106724;28;20051;-72
2020/12/21 09:39:37;;;;;;;14.02;5.85;;;;;;;6.23;86.84;100397.09;5106077;28;20077;-73
2020/12/21 09:42:04;;;;;;;20.70;6.00;;;;;;;6.00;86.80;100353.88;5105004;28;20020;-73
2020/12/21 09:44:29;;;;;;;17.88;4.57;;;;;;;6.06;86.96;100375.44;5106482;28;20023;-71
2020/12/21 09:46:55;;;;;;;13.25;3.05;;;;;;;5.85;86.90;100345.13;5106756;28;20051;-70
2020/12/21 09:49:20;;;;;;;22.40;4.35;;;;;;;5.90;87.11;100361.50;5106339;28;20048;-71
2020/12/21 09:51:50;;;;;;;15.05;5.35;;;;;;;6.06;87.31;100397.78;5106143;28;20031;-73
2020/12/21 09:54:15;;;;;;;15.93;4.05;;;;;;;6.09;87.33;100396.97;5106285;28;20020;-74
2020/12/21 09:56:45;;;;;;;13.13;5.05;;;;;;;6.02;87.47;100396.84;5105907;28;20055;-73
2020/12/21 09:59:11;;;;;;;15.30;6.15;;;;;;;6.06;87.60;100400.34;5106283;28;20097;-75
2020/12/21 10:01:36;;;;;;;23.40;6.53;;;;;;;6.04;87.73;100394.28;5105972;28;20020;-73
2020/12/21 10:04:01;;;;;;;24.40;7.35;;;;;;;6.08;87.92;100396.09;5105706;28;20071;-73
2020/12/21 10:06:27;;;;;;;20.88;6.75;;;;;;;6.04;88.28;100386.53;5105945;28;20036;-73
2020/12/21 10:08:53;;;;;;;20.98;7.05;;;;;;;6.08;88.32;100393.50;5105969;28;20070;-73
2020/12/21 10:11:19;;;;;;;23.40;8.80;;;;;;;6.09;88.21;100397.78;5105269;28;20069;-74
2020/12/21 10:13:44;;;;;;;19.70;6.70;;;;;;;6.07;88.42;100409.81;5105074;28;20016;-73
2020/12/21 10:16:09;;;;;;;25.33;7.47;;;;;;;6.05;88.31;100388.31;5104889;28;20020;-73
2020/12/21 10:18:35;;;;;;;25.95;7.38;;;;;;;6.11;88.67;100392.66;5105507;28;20028;-72
2020/12/21 10:21:01;;;;;;;30.40;10.13;;;;;;;6.15;88.54;100397.00;5105634;28;20020;-72
2020/12/21 10:23:26;;;;;;;43.97;13.07;;;;;;;6.14;88.69;100403.00;5105824;28;20023;-72
2020/12/21 10:25:51;;;;;;;37.63;11.80;;;;;;;6.10;88.83;100391.81;5105585;28;20027;-72
2020/12/21 10:28:17;;;;;;;37.83;12.88;;;;;;;6.08;89.07;100383.19;5105485;28;20028;-73
2020/12/21 10:30:42;;;;;;;27.58;9.30;;;;;;;6.19;89.19;100394.47;5105399;28;20425;-74
2020/12/21 10:33:08;;;;;;;35.33;11.35;;;;;;;6.23;89.06;100399.66;5105695;28;20016;-72
2020/12/21 10:35:37;;;;;;;42.97;12.18;;;;;;;6.20;88.96;100393.63;5105567;28;20028;-73
2020/12/21 10:38:02;;;;;;;48.45;14.93;;;;;;;6.24;88.98;100415.16;5105620;28;20470;-72
2020/12/21 10:40:28;;;;;;;40.13;11.75;;;;;;;6.24;89.29;100404.84;5105130;28;20035;-72
2020/12/21 10:42:53;;;;;;;30.30;11.73;;;;;;;6.26;89.14;100407.41;5104913;28;20123;-73
2020/12/21 10:45:18;;;;;;;40.13;11.18;;;;;;;6.29;89.23;100410.03;5105070;28;20020;-73
2020/12/21 10:47:44;;;;;;;40.83;12.07;;;;;;;6.29;89.07;100403.13;5105137;28;20028;-72
2020/12/21 10:50:09;;;;;;;30.10;8.93;;;;;;;6.35;88.81;100412.66;5104703;28;20387;-73
2020/12/21 10:52:34;;;;;;;29.40;10.13;;;;;;;6.29;88.88;100395.41;5104173;28;20286;-73
2020/12/21 10:55:00;;;;;;;29.27;8.10;;;;;;;6.32;88.83;100405.78;5105383;28;20020;-73
2020/12/21 10:57:25;;;;;;;43.72;12.20;;;;;;;6.35;88.60;100401.47;5104975;28;20460;-73
2020/12/21 10:59:50;;;;;;;26.20;10.23;;;;;;;6.31;88.42;100405.75;5103914;28;20024;-73
2020/12/21 11:02:16;;;;;;;33.30;10.35;;;;;;;6.36;88.82;100405.81;5105397;28;20095;-74
2020/12/21 11:04:41;;;;;;;42.63;10.23;;;;;;;6.37;88.56;100405.81;5104899;28;20515;-74
2020/12/21 11:07:06;;;;;;;32.13;7.57;;;;;;;6.39;88.50;100410.97;5104025;28;20022;-74
2020/12/21 11:09:32;;;;;;;29.98;8.02;;;;;;;6.31;88.88;100400.59;5105301;28;20055;-74
2020/12/21 11:11:57;;;;;;;17.98;7.05;;;;;;;6.43;88.67;100403.28;5105127;28;20028;-73
2020/12/21 11:14:23;;;;;;;26.98;8.20;;;;;;;6.43;88.59;100398.13;5105232;28;20039;-74
2020/12/21 11:16:54;;;;;;;28.17;9.40;;;;;;;6.41;88.43;100394.66;5104318;28;20013;-74